sensor_id;sensor_type;location;lat;lon;timestamp;temperature;humidity
51557;DHT22;38766;53.194;5.532;2023-02-15T00:01:35;4.40;99.90
51557;DHT22;38766;53.194;5.532;2023-02-15T00:04:04;4.30;99.90
51557;DHT22;38766;53.194;5.532;2023-02-15T00:06:30;4.30;99.90
51557;DHT22;38766;53.194;5.532;2023-02-15T00:08:57;4.30;99.90
51557;DHT22;38766;53.194;5.532;2023-02-15T00:11:23;4.30;99.90
51557;DHT22;38766;53.194;5.532;2023-02-15T00:14:14;4.20;99.90
51557;DHT22;38766;53.194;5.532;2023-02-15T00:16:41;4.20;99.90
51557;DHT22;38766;53.194;5.532;2023-02-15T00:19:08;4.20;99.90
51557;DHT22;38766;53.194;5.532;2023-02-15T00:21:35;4.20;99.90
51557;DHT22;38766;53.194;5.532;2023-02-15T00:24:03;4.20;99.90
51557;DHT22;38766;53.194;5.532;2023-02-15T00:26:31;4.20;99.90
51557;DHT22;38766;53.194;5.532;2023-02-15T00:28:57;4.20;99.90
51557;DHT22;38766;53.194;5.532;2023-02-15T00:31:28;4.30;99.90
51557;DHT22;38766;53.194;5.532;2023-02-15T00:34:00;4.20;99.90
51557;DHT22;38766;53.194;5.532;2023-02-15T00:36:26;4.10;99.90
51557;DHT22;38766;53.194;5.532;2023-02-15T00:38:51;4.20;99.90
51557;DHT22;38766;53.194;5.532;2023-02-15T00:41:17;4.20;99.90
51557;DHT22;38766;53.194;5.532;2023-02-15T00:43:43;4.10;99.90
51557;DHT22;38766;53.194;5.532;2023-02-15T00:46:08;4.20;99.90
51557;DHT22;38766;53.194;5.532;2023-02-15T00:48:34;4.20;99.90
51557;DHT22;38766;53.194;5.532;2023-02-15T00:51:00;4.20;99.90
51557;DHT22;38766;53.194;5.532;2023-02-15T00:53:28;4.20;99.90
51557;DHT22;38766;53.194;5.532;2023-02-15T00:55:54;4.20;99.90
51557;DHT22;38766;53.194;5.532;2023-02-15T00:58:19;4.20;99.90
51557;DHT22;38766;53.194;5.532;2023-02-15T01:00:47;4.20;99.90
51557;DHT22;38766;53.194;5.532;2023-02-15T01:03:13;4.20;99.90
51557;DHT22;38766;53.194;5.532;2023-02-15T01:05:39;4.20;99.90
51557;DHT22;38766;53.194;5.532;2023-02-15T01:08:05;4.20;99.90
51557;DHT22;38766;53.194;5.532;2023-02-15T01:10:31;4.20;99.90
51557;DHT22;38766;53.194;5.532;2023-02-15T01:12:57;4.20;99.90
51557;DHT22;38766;53.194;5.532;2023-02-15T01:15:23;4.20;99.90
51557;DHT22;38766;53.194;5.532;2023-02-15T01:17:49;4.20;99.90
51557;DHT22;38766;53.194;5.532;2023-02-15T01:20:24;4.10;99.90
51557;DHT22;38766;53.194;5.532;2023-02-15T01:22:51;4.20;99.90
51557;DHT22;38766;53.194;5.532;2023-02-15T01:25:18;4.10;99.90
51557;DHT22;38766;53.194;5.532;2023-02-15T01:27:44;4.10;99.90
51557;DHT22;38766;53.194;5.532;2023-02-15T01:30:11;4.10;99.90
51557;DHT22;38766;53.194;5.532;2023-02-15T01:32:37;4.00;99.90
51557;DHT22;38766;53.194;5.532;2023-02-15T01:35:03;4.10;99.90
51557;DHT22;38766;53.194;5.532;2023-02-15T01:37:33;4.00;99.90
51557;DHT22;38766;53.194;5.532;2023-02-15T01:39:59;4.00;99.90
51557;DHT22;38766;53.194;5.532;2023-02-15T01:42:26;4.00;99.90
51557;DHT22;38766;53.194;5.532;2023-02-15T01:44:57;3.90;99.90
51557;DHT22;38766;53.194;5.532;2023-02-15T01:50:14;3.90;99.90
51557;DHT22;38766;53.194;5.532;2023-02-15T01:53:16;4.00;99.90
51557;DHT22;38766;53.194;5.532;2023-02-15T01:56:46;3.90;99.90
51557;DHT22;38766;53.194;5.532;2023-02-15T01:58:59;3.80;99.90
51557;DHT22;38766;53.194;5.532;2023-02-15T02:01:28;3.80;99.90
51557;DHT22;38766;53.194;5.532;2023-02-15T02:04:15;3.80;99.90
51557;DHT22;38766;53.194;5.532;2023-02-15T02:06:41;3.80;99.90
51557;DHT22;38766;53.194;5.532;2023-02-15T02:09:07;3.80;99.90
51557;DHT22;38766;53.194;5.532;2023-02-15T02:11:34;3.80;99.90
51557;DHT22;38766;53.194;5.532;2023-02-15T02:14:00;3.80;99.90
51557;DHT22;38766;53.194;5.532;2023-02-15T02:16:41;3.70;99.90
51557;DHT22;38766;53.194;5.532;2023-02-15T02:27:50;3.50;99.90
51557;DHT22;38766;53.194;5.532;2023-02-15T02:30:40;3.40;99.90
51557;DHT22;38766;53.194;5.532;2023-02-15T02:41:26;3.20;99.90
51557;DHT22;38766;53.194;5.532;2023-02-15T02:44:07;3.30;99.90
51557;DHT22;38766;53.194;5.532;2023-02-15T02:49:07;3.30;99.90
51557;DHT22;38766;53.194;5.532;2023-02-15T02:51:32;3.30;99.90
51557;DHT22;38766;53.194;5.532;2023-02-15T02:54:00;3.20;99.90
51557;DHT22;38766;53.194;5.532;2023-02-15T02:56:37;3.20;99.90
51557;DHT22;38766;53.194;5.532;2023-02-15T02:59:17;3.20;99.90
51557;DHT22;38766;53.194;5.532;2023-02-15T03:02:01;3.20;99.90
51557;DHT22;38766;53.194;5.532;2023-02-15T03:04:31;3.10;99.90
51557;DHT22;38766;53.194;5.532;2023-02-15T03:07:00;3.20;99.90
51557;DHT22;38766;53.194;5.532;2023-02-15T03:09:39;3.10;99.90
51557;DHT22;38766;53.194;5.532;2023-02-15T03:12:25;3.00;99.90
51557;DHT22;38766;53.194;5.532;2023-02-15T03:15:01;3.10;99.90
51557;DHT22;38766;53.194;5.532;2023-02-15T03:17:30;3.10;99.90
51557;DHT22;38766;53.194;5.532;2023-02-15T03:20:05;3.00;99.90
51557;DHT22;38766;53.194;5.532;2023-02-15T03:22:36;3.00;99.90
51557;DHT22;38766;53.194;5.532;2023-02-15T03:25:18;3.10;99.90
51557;DHT22;38766;53.194;5.532;2023-02-15T03:27:49;3.10;99.90
51557;DHT22;38766;53.194;5.532;2023-02-15T03:30:18;3.00;99.90
51557;DHT22;38766;53.194;5.532;2023-02-15T03:32:46;3.00;99.90
51557;DHT22;38766;53.194;5.532;2023-02-15T03:35:12;3.00;99.90
51557;DHT22;38766;53.194;5.532;2023-02-15T03:38:07;2.90;99.90
51557;DHT22;38766;53.194;5.532;2023-02-15T03:40:44;2.90;99.90
51557;DHT22;38766;53.194;5.532;2023-02-15T03:43:35;2.90;99.90
51557;DHT22;38766;53.194;5.532;2023-02-15T03:46:22;2.70;99.90
51557;DHT22;38766;53.194;5.532;2023-02-15T03:48:52;2.80;99.90
51557;DHT22;38766;53.194;5.532;2023-02-15T03:51:22;2.70;99.90
51557;DHT22;38766;53.194;5.532;2023-02-15T03:54:09;2.80;99.90
51557;DHT22;38766;53.194;5.532;2023-02-15T03:56:37;2.70;99.90
51557;DHT22;38766;53.194;5.532;2023-02-15T03:59:04;2.80;99.90
51557;DHT22;38766;53.194;5.532;2023-02-15T04:01:58;2.80;99.90
51557;DHT22;38766;53.194;5.532;2023-02-15T04:04:40;2.80;99.90
51557;DHT22;38766;53.194;5.532;2023-02-15T04:07:08;2.80;99.90
51557;DHT22;38766;53.194;5.532;2023-02-15T04:09:34;2.80;99.90
51557;DHT22;38766;53.194;5.532;2023-02-15T04:12:19;2.80;99.90
51557;DHT22;38766;53.194;5.532;2023-02-15T04:14:44;2.80;99.90
51557;DHT22;38766;53.194;5.532;2023-02-15T04:17:29;2.90;99.90
51557;DHT22;38766;53.194;5.532;2023-02-15T04:19:55;2.90;99.90
51557;DHT22;38766;53.194;5.532;2023-02-15T04:22:39;2.90;99.90
51557;DHT22;38766;53.194;5.532;2023-02-15T04:25:24;2.90;99.90
51557;DHT22;38766;53.194;5.532;2023-02-15T04:27:51;2.90;99.90
51557;DHT22;38766;53.194;5.532;2023-02-15T04:30:20;2.90;99.90
51557;DHT22;38766;53.194;5.532;2023-02-15T04:32:46;2.90;99.90
51557;DHT22;38766;53.194;5.532;2023-02-15T04:35:12;3.00;99.90
51557;DHT22;38766;53.194;5.532;2023-02-15T04:37:39;2.90;99.90
51557;DHT22;38766;53.194;5.532;2023-02-15T04:40:06;2.90;99.90
51557;DHT22;38766;53.194;5.532;2023-02-15T04:42:41;2.90;99.90
51557;DHT22;38766;53.194;5.532;2023-02-15T04:45:07;2.90;99.90
51557;DHT22;38766;53.194;5.532;2023-02-15T04:47:33;2.90;99.90
51557;DHT22;38766;53.194;5.532;2023-02-15T04:49:59;2.90;99.90
51557;DHT22;38766;53.194;5.532;2023-02-15T04:52:24;2.80;99.90
51557;DHT22;38766;53.194;5.532;2023-02-15T04:54:50;2.80;99.90
51557;DHT22;38766;53.194;5.532;2023-02-15T04:57:16;2.70;99.90
51557;DHT22;38766;53.194;5.532;2023-02-15T04:59:41;2.70;99.90
51557;DHT22;38766;53.194;5.532;2023-02-15T05:02:07;2.70;99.90
51557;DHT22;38766;53.194;5.532;2023-02-15T05:04:32;2.70;99.90
51557;DHT22;38766;53.194;5.532;2023-02-15T05:06:58;2.70;99.90
51557;DHT22;38766;53.194;5.532;2023-02-15T05:09:24;2.70;99.90
51557;DHT22;38766;53.194;5.532;2023-02-15T05:11:49;2.80;99.90
51557;DHT22;38766;53.194;5.532;2023-02-15T05:14:15;2.80;99.90
51557;DHT22;38766;53.194;5.532;2023-02-15T05:16:40;2.70;99.90
51557;DHT22;38766;53.194;5.532;2023-02-15T05:19:06;2.70;99.90
51557;DHT22;38766;53.194;5.532;2023-02-15T05:21:32;2.70;99.90
51557;DHT22;38766;53.194;5.532;2023-02-15T05:23:58;2.70;99.90
51557;DHT22;38766;53.194;5.532;2023-02-15T05:26:25;2.80;99.90
51557;DHT22;38766;53.194;5.532;2023-02-15T05:29:10;2.80;99.90
51557;DHT22;38766;53.194;5.532;2023-02-15T05:31:36;2.70;99.90
51557;DHT22;38766;53.194;5.532;2023-02-15T05:34:01;2.70;99.90
51557;DHT22;38766;53.194;5.532;2023-02-15T05:36:27;2.70;99.90
51557;DHT22;38766;53.194;5.532;2023-02-15T05:38:54;2.70;99.90
51557;DHT22;38766;53.194;5.532;2023-02-15T05:41:19;2.60;99.90
51557;DHT22;38766;53.194;5.532;2023-02-15T05:43:45;2.60;99.90
51557;DHT22;38766;53.194;5.532;2023-02-15T05:46:11;2.60;99.90
51557;DHT22;38766;53.194;5.532;2023-02-15T05:48:37;2.60;99.90
51557;DHT22;38766;53.194;5.532;2023-02-15T05:51:08;2.60;99.90
51557;DHT22;38766;53.194;5.532;2023-02-15T05:53:36;2.60;99.90
51557;DHT22;38766;53.194;5.532;2023-02-15T05:56:02;2.60;99.90
51557;DHT22;38766;53.194;5.532;2023-02-15T05:58:34;2.60;99.90
51557;DHT22;38766;53.194;5.532;2023-02-15T06:01:10;2.60;99.90
51557;DHT22;38766;53.194;5.532;2023-02-15T06:03:36;2.50;99.90
51557;DHT22;38766;53.194;5.532;2023-02-15T06:06:02;2.60;99.90
51557;DHT22;38766;53.194;5.532;2023-02-15T06:08:30;2.50;99.90
51557;DHT22;38766;53.194;5.532;2023-02-15T06:10:56;2.50;99.90
51557;DHT22;38766;53.194;5.532;2023-02-15T06:13:21;2.50;99.90
51557;DHT22;38766;53.194;5.532;2023-02-15T06:15:47;2.50;99.90
51557;DHT22;38766;53.194;5.532;2023-02-15T06:18:13;2.60;99.90
51557;DHT22;38766;53.194;5.532;2023-02-15T06:20:38;2.60;99.90
51557;DHT22;38766;53.194;5.532;2023-02-15T06:23:04;2.60;99.90
51557;DHT22;38766;53.194;5.532;2023-02-15T06:25:29;2.60;99.90
51557;DHT22;38766;53.194;5.532;2023-02-15T06:27:55;2.60;99.90
51557;DHT22;38766;53.194;5.532;2023-02-15T06:30:21;2.60;99.90
51557;DHT22;38766;53.194;5.532;2023-02-15T06:32:46;2.50;99.90
51557;DHT22;38766;53.194;5.532;2023-02-15T06:35:12;2.50;99.90
51557;DHT22;38766;53.194;5.532;2023-02-15T06:37:38;2.50;99.90
51557;DHT22;38766;53.194;5.532;2023-02-15T06:40:04;2.40;99.90
51557;DHT22;38766;53.194;5.532;2023-02-15T06:42:30;2.40;99.90
51557;DHT22;38766;53.194;5.532;2023-02-15T06:44:55;2.40;99.90
51557;DHT22;38766;53.194;5.532;2023-02-15T06:47:24;2.40;99.90
51557;DHT22;38766;53.194;5.532;2023-02-15T06:49:49;2.40;99.90
51557;DHT22;38766;53.194;5.532;2023-02-15T06:52:15;2.40;99.90
51557;DHT22;38766;53.194;5.532;2023-02-15T06:54:40;2.50;99.90
51557;DHT22;38766;53.194;5.532;2023-02-15T06:57:06;2.50;99.90
51557;DHT22;38766;53.194;5.532;2023-02-15T06:59:32;2.50;99.90
51557;DHT22;38766;53.194;5.532;2023-02-15T07:01:57;2.50;99.90
51557;DHT22;38766;53.194;5.532;2023-02-15T07:04:23;2.60;99.90
51557;DHT22;38766;53.194;5.532;2023-02-15T07:06:49;2.60;99.90
51557;DHT22;38766;53.194;5.532;2023-02-15T07:09:15;2.60;99.90
51557;DHT22;38766;53.194;5.532;2023-02-15T07:11:44;2.60;99.90
51557;DHT22;38766;53.194;5.532;2023-02-15T07:14:28;2.60;99.90
51557;DHT22;38766;53.194;5.532;2023-02-15T07:16:54;2.60;99.90
51557;DHT22;38766;53.194;5.532;2023-02-15T07:19:20;2.60;99.90
51557;DHT22;38766;53.194;5.532;2023-02-15T07:21:45;2.60;99.90
51557;DHT22;38766;53.194;5.532;2023-02-15T07:24:11;2.60;99.90
51557;DHT22;38766;53.194;5.532;2023-02-15T07:26:36;2.60;99.90
51557;DHT22;38766;53.194;5.532;2023-02-15T07:29:02;2.60;99.90
51557;DHT22;38766;53.194;5.532;2023-02-15T07:31:28;2.60;99.90
51557;DHT22;38766;53.194;5.532;2023-02-15T07:33:54;2.60;99.90
51557;DHT22;38766;53.194;5.532;2023-02-15T07:36:19;2.60;99.90
51557;DHT22;38766;53.194;5.532;2023-02-15T07:38:45;2.60;99.90
51557;DHT22;38766;53.194;5.532;2023-02-15T07:41:13;2.60;99.90
51557;DHT22;38766;53.194;5.532;2023-02-15T07:43:41;2.70;99.90
51557;DHT22;38766;53.194;5.532;2023-02-15T07:46:09;2.70;99.90
51557;DHT22;38766;53.194;5.532;2023-02-15T07:48:37;2.70;99.90
51557;DHT22;38766;53.194;5.532;2023-02-15T07:51:05;2.70;99.90
51557;DHT22;38766;53.194;5.532;2023-02-15T07:53:32;2.80;99.90
51557;DHT22;38766;53.194;5.532;2023-02-15T07:55:59;2.80;99.90
51557;DHT22;38766;53.194;5.532;2023-02-15T07:58:25;2.80;99.90
51557;DHT22;38766;53.194;5.532;2023-02-15T08:01:12;2.90;99.90
51557;DHT22;38766;53.194;5.532;2023-02-15T08:03:38;2.90;99.90
51557;DHT22;38766;53.194;5.532;2023-02-15T08:06:04;3.00;99.90
51557;DHT22;38766;53.194;5.532;2023-02-15T08:08:33;3.00;99.90
51557;DHT22;38766;53.194;5.532;2023-02-15T08:13:52;3.10;99.90
51557;DHT22;38766;53.194;5.532;2023-02-15T08:18:52;3.30;99.90
51557;DHT22;38766;53.194;5.532;2023-02-15T08:21:19;3.30;99.90
51557;DHT22;38766;53.194;5.532;2023-02-15T08:23:45;3.40;99.90
51557;DHT22;38766;53.194;5.532;2023-02-15T08:26:11;3.40;99.90
51557;DHT22;38766;53.194;5.532;2023-02-15T08:28:37;3.40;99.90
51557;DHT22;38766;53.194;5.532;2023-02-15T08:31:11;3.40;99.90
51557;DHT22;38766;53.194;5.532;2023-02-15T08:33:38;3.50;99.90
51557;DHT22;38766;53.194;5.532;2023-02-15T08:36:05;3.50;99.90
51557;DHT22;38766;53.194;5.532;2023-02-15T08:38:31;3.50;99.90
51557;DHT22;38766;53.194;5.532;2023-02-15T08:40:58;3.60;99.90
51557;DHT22;38766;53.194;5.532;2023-02-15T08:43:33;3.60;99.90
51557;DHT22;38766;53.194;5.532;2023-02-15T08:45:59;3.70;99.90
51557;DHT22;38766;53.194;5.532;2023-02-15T08:48:24;3.70;99.90
51557;DHT22;38766;53.194;5.532;2023-02-15T08:50:50;3.80;99.90
51557;DHT22;38766;53.194;5.532;2023-02-15T08:53:16;3.90;99.90
51557;DHT22;38766;53.194;5.532;2023-02-15T08:55:45;3.80;99.90
51557;DHT22;38766;53.194;5.532;2023-02-15T08:58:11;3.90;99.90
51557;DHT22;38766;53.194;5.532;2023-02-15T09:00:37;4.00;99.90
51557;DHT22;38766;53.194;5.532;2023-02-15T09:03:03;4.00;99.90
51557;DHT22;38766;53.194;5.532;2023-02-15T09:05:29;4.00;99.90
51557;DHT22;38766;53.194;5.532;2023-02-15T09:07:54;4.20;99.90
51557;DHT22;38766;53.194;5.532;2023-02-15T09:10:20;4.30;99.90
51557;DHT22;38766;53.194;5.532;2023-02-15T09:12:45;4.40;99.90
51557;DHT22;38766;53.194;5.532;2023-02-15T09:15:11;4.50;99.90
51557;DHT22;38766;53.194;5.532;2023-02-15T09:17:37;4.70;99.90
51557;DHT22;38766;53.194;5.532;2023-02-15T09:20:06;4.80;99.90
51557;DHT22;38766;53.194;5.532;2023-02-15T09:22:34;4.90;99.90
51557;DHT22;38766;53.194;5.532;2023-02-15T09:25:00;5.10;99.90
51557;DHT22;38766;53.194;5.532;2023-02-15T09:27:25;5.10;99.90
51557;DHT22;38766;53.194;5.532;2023-02-15T09:29:51;5.30;99.90
51557;DHT22;38766;53.194;5.532;2023-02-15T09:32:17;5.40;99.90
51557;DHT22;38766;53.194;5.532;2023-02-15T09:34:43;5.60;99.90
51557;DHT22;38766;53.194;5.532;2023-02-15T09:37:08;5.80;99.90
51557;DHT22;38766;53.194;5.532;2023-02-15T09:39:37;5.90;99.90
51557;DHT22;38766;53.194;5.532;2023-02-15T09:42:33;6.10;99.90
51557;DHT22;38766;53.194;5.532;2023-02-15T10:15:02;7.90;99.90
51557;DHT22;38766;53.194;5.532;2023-02-15T10:18:01;8.00;99.90
51557;DHT22;38766;53.194;5.532;2023-02-15T10:20:49;8.00;99.90
51557;DHT22;38766;53.194;5.532;2023-02-15T10:29:01;8.20;99.90
51557;DHT22;38766;53.194;5.532;2023-02-15T10:31:56;8.20;99.90
51557;DHT22;38766;53.194;5.532;2023-02-15T10:34:43;8.30;99.90
51557;DHT22;38766;53.194;5.532;2023-02-15T10:37:34;8.30;99.90
51557;DHT22;38766;53.194;5.532;2023-02-15T10:49:35;8.30;99.90
51557;DHT22;38766;53.194;5.532;2023-02-15T10:54:45;8.40;99.90
51557;DHT22;38766;53.194;5.532;2023-02-15T10:57:17;8.50;99.90
51557;DHT22;38766;53.194;5.532;2023-02-15T10:59:57;8.50;99.90
51557;DHT22;38766;53.194;5.532;2023-02-15T11:07:41;8.70;99.90
51557;DHT22;38766;53.194;5.532;2023-02-15T11:13:11;8.90;99.90
51557;DHT22;38766;53.194;5.532;2023-02-15T11:18:37;9.10;99.90
51557;DHT22;38766;53.194;5.532;2023-02-15T11:21:17;9.10;99.90
51557;DHT22;38766;53.194;5.532;2023-02-15T11:23:46;9.30;99.90
51557;DHT22;38766;53.194;5.532;2023-02-15T11:29:07;9.50;99.90
51557;DHT22;38766;53.194;5.532;2023-02-15T11:31:54;9.70;99.90
51557;DHT22;38766;53.194;5.532;2023-02-15T11:34:37;9.80;99.90
51557;DHT22;38766;53.194;5.532;2023-02-15T11:37:10;10.00;99.90
51557;DHT22;38766;53.194;5.532;2023-02-15T11:39:36;10.20;99.90
51557;DHT22;38766;53.194;5.532;2023-02-15T11:42:16;10.30;99.90
51557;DHT22;38766;53.194;5.532;2023-02-15T11:45:02;10.40;99.90
51557;DHT22;38766;53.194;5.532;2023-02-15T11:47:29;10.50;99.90
51557;DHT22;38766;53.194;5.532;2023-02-15T11:49:56;10.60;99.90
51557;DHT22;38766;53.194;5.532;2023-02-15T11:52:22;10.60;99.90
51557;DHT22;38766;53.194;5.532;2023-02-15T11:54:50;10.60;99.90
51557;DHT22;38766;53.194;5.532;2023-02-15T11:57:26;10.60;99.90
51557;DHT22;38766;53.194;5.532;2023-02-15T12:02:37;10.60;99.90
51557;DHT22;38766;53.194;5.532;2023-02-15T12:05:10;10.50;99.90
51557;DHT22;38766;53.194;5.532;2023-02-15T12:07:42;10.50;99.90
51557;DHT22;38766;53.194;5.532;2023-02-15T12:13:16;10.40;99.90
51557;DHT22;38766;53.194;5.532;2023-02-15T12:15:45;10.40;99.90
51557;DHT22;38766;53.194;5.532;2023-02-15T12:18:29;10.30;99.90
51557;DHT22;38766;53.194;5.532;2023-02-15T12:21:01;10.30;99.90
51557;DHT22;38766;53.194;5.532;2023-02-15T12:23:28;10.30;99.90
51557;DHT22;38766;53.194;5.532;2023-02-15T12:25:56;10.20;99.90
51557;DHT22;38766;53.194;5.532;2023-02-15T12:28:24;10.20;99.90
51557;DHT22;38766;53.194;5.532;2023-02-15T12:30:52;10.20;99.90
51557;DHT22;38766;53.194;5.532;2023-02-15T12:33:35;10.20;99.90
51557;DHT22;38766;53.194;5.532;2023-02-15T12:38:39;10.30;99.90
51557;DHT22;38766;53.194;5.532;2023-02-15T12:43:47;10.20;99.90
51557;DHT22;38766;53.194;5.532;2023-02-15T12:46:24;10.20;99.90
51557;DHT22;38766;53.194;5.532;2023-02-15T12:49:17;10.20;99.90
51557;DHT22;38766;53.194;5.532;2023-02-15T12:51:51;10.10;99.90
51557;DHT22;38766;53.194;5.532;2023-02-15T12:56:57;10.00;99.90
51557;DHT22;38766;53.194;5.532;2023-02-15T12:59:23;10.00;99.90
51557;DHT22;38766;53.194;5.532;2023-02-15T13:01:51;10.00;99.90
51557;DHT22;38766;53.194;5.532;2023-02-15T13:04:27;9.90;99.90
51557;DHT22;38766;53.194;5.532;2023-02-15T13:07:00;9.80;99.90
51557;DHT22;38766;53.194;5.532;2023-02-15T13:12:01;9.70;99.90
51557;DHT22;38766;53.194;5.532;2023-02-15T13:14:34;9.80;99.90
51557;DHT22;38766;53.194;5.532;2023-02-15T13:17:03;9.70;99.90
51557;DHT22;38766;53.194;5.532;2023-02-15T13:20:16;9.70;99.90
51557;DHT22;38766;53.194;5.532;2023-02-15T13:22:44;9.70;99.90
51557;DHT22;38766;53.194;5.532;2023-02-15T13:25:22;9.70;99.90
51557;DHT22;38766;53.194;5.532;2023-02-15T13:27:52;9.70;99.90
51557;DHT22;38766;53.194;5.532;2023-02-15T13:30:22;9.70;99.90
51557;DHT22;38766;53.194;5.532;2023-02-15T13:32:51;9.60;99.90
51557;DHT22;38766;53.194;5.532;2023-02-15T13:35:18;9.70;99.90
51557;DHT22;38766;53.194;5.532;2023-02-15T13:40:58;9.60;99.90
51557;DHT22;38766;53.194;5.532;2023-02-15T13:46:15;9.50;99.90
51557;DHT22;38766;53.194;5.532;2023-02-15T13:49:14;9.50;99.90
51557;DHT22;38766;53.194;5.532;2023-02-15T13:52:08;9.50;99.90
51557;DHT22;38766;53.194;5.532;2023-02-15T13:59:54;9.40;99.90
51557;DHT22;38766;53.194;5.532;2023-02-15T14:02:38;9.40;99.90
51557;DHT22;38766;53.194;5.532;2023-02-15T14:08:11;9.30;99.90
51557;DHT22;38766;53.194;5.532;2023-02-15T14:11:00;9.30;99.90
51557;DHT22;38766;53.194;5.532;2023-02-15T14:19:02;9.20;99.90
51557;DHT22;38766;53.194;5.532;2023-02-15T14:21:36;9.30;99.90
51557;DHT22;38766;53.194;5.532;2023-02-15T14:32:38;9.40;99.90
51557;DHT22;38766;53.194;5.532;2023-02-15T14:35:13;9.40;99.90
51557;DHT22;38766;53.194;5.532;2023-02-15T14:43:27;9.50;99.90
51557;DHT22;38766;53.194;5.532;2023-02-15T14:46:03;9.50;99.90
51557;DHT22;38766;53.194;5.532;2023-02-15T14:48:46;9.50;99.90
51557;DHT22;38766;53.194;5.532;2023-02-15T14:56:42;9.40;99.90
51557;DHT22;38766;53.194;5.532;2023-02-15T14:59:21;9.40;99.90
51557;DHT22;38766;53.194;5.532;2023-02-15T15:09:39;9.30;99.90
51557;DHT22;38766;53.194;5.532;2023-02-15T15:14:48;9.30;99.90
51557;DHT22;38766;53.194;5.532;2023-02-15T15:20:03;9.20;99.90
51557;DHT22;38766;53.194;5.532;2023-02-15T15:22:33;9.10;99.90
51557;DHT22;38766;53.194;5.532;2023-02-15T15:25:01;9.10;99.90
51557;DHT22;38766;53.194;5.532;2023-02-15T15:46:03;8.90;99.90
51557;DHT22;38766;53.194;5.532;2023-02-15T15:48:35;8.90;99.90
51557;DHT22;38766;53.194;5.532;2023-02-15T15:51:20;8.80;99.90
51557;DHT22;38766;53.194;5.532;2023-02-15T15:53:48;8.70;99.90
51557;DHT22;38766;53.194;5.532;2023-02-15T15:56:31;8.70;99.90
51557;DHT22;38766;53.194;5.532;2023-02-15T15:59:04;8.70;99.90
51557;DHT22;38766;53.194;5.532;2023-02-15T16:01:43;8.60;99.90
51557;DHT22;38766;53.194;5.532;2023-02-15T16:04:14;8.60;99.90
51557;DHT22;38766;53.194;5.532;2023-02-15T16:06:47;8.60;99.90
51557;DHT22;38766;53.194;5.532;2023-02-15T16:11:46;8.50;99.90
51557;DHT22;38766;53.194;5.532;2023-02-15T16:14:18;8.40;99.90
51557;DHT22;38766;53.194;5.532;2023-02-15T16:16:51;8.40;99.90
51557;DHT22;38766;53.194;5.532;2023-02-15T16:19:23;8.40;99.90
51557;DHT22;38766;53.194;5.532;2023-02-15T16:21:50;8.40;99.90
51557;DHT22;38766;53.194;5.532;2023-02-15T16:24:23;8.30;99.90
51557;DHT22;38766;53.194;5.532;2023-02-15T16:29:38;8.20;99.90
51557;DHT22;38766;53.194;5.532;2023-02-15T16:32:14;8.20;99.90
51557;DHT22;38766;53.194;5.532;2023-02-15T16:34:51;8.10;99.90
51557;DHT22;38766;53.194;5.532;2023-02-15T16:37:22;8.10;99.90
51557;DHT22;38766;53.194;5.532;2023-02-15T16:39:49;8.10;99.90
51557;DHT22;38766;53.194;5.532;2023-02-15T16:42:16;8.00;99.90
51557;DHT22;38766;53.194;5.532;2023-02-15T16:44:44;8.00;99.90
51557;DHT22;38766;53.194;5.532;2023-02-15T16:47:21;7.90;99.90
51557;DHT22;38766;53.194;5.532;2023-02-15T16:49:50;7.90;99.90
51557;DHT22;38766;53.194;5.532;2023-02-15T16:52:24;7.90;99.90
51557;DHT22;38766;53.194;5.532;2023-02-15T16:54:56;7.80;99.90
51557;DHT22;38766;53.194;5.532;2023-02-15T16:57:29;7.80;99.90
51557;DHT22;38766;53.194;5.532;2023-02-15T17:00:02;7.80;99.90
51557;DHT22;38766;53.194;5.532;2023-02-15T17:02:30;7.80;99.90
51557;DHT22;38766;53.194;5.532;2023-02-15T17:07:39;7.80;99.90
51557;DHT22;38766;53.194;5.532;2023-02-15T17:10:32;7.80;99.90
51557;DHT22;38766;53.194;5.532;2023-02-15T17:13:03;7.70;99.90
51557;DHT22;38766;53.194;5.532;2023-02-15T17:18:03;7.70;99.90
51557;DHT22;38766;53.194;5.532;2023-02-15T17:20:30;7.70;99.90
51557;DHT22;38766;53.194;5.532;2023-02-15T17:22:56;7.70;99.90
51557;DHT22;38766;53.194;5.532;2023-02-15T17:25:37;7.60;99.90
51557;DHT22;38766;53.194;5.532;2023-02-15T17:28:04;7.60;99.90
51557;DHT22;38766;53.194;5.532;2023-02-15T17:30:33;7.60;99.90
51557;DHT22;38766;53.194;5.532;2023-02-15T17:33:02;7.50;99.90
51557;DHT22;38766;53.194;5.532;2023-02-15T17:35:32;7.40;99.90
51557;DHT22;38766;53.194;5.532;2023-02-15T17:38:10;7.50;99.90
51557;DHT22;38766;53.194;5.532;2023-02-15T17:40:40;7.40;99.90
51557;DHT22;38766;53.194;5.532;2023-02-15T17:43:05;7.40;99.90
51557;DHT22;38766;53.194;5.532;2023-02-15T17:45:40;7.40;99.90
51557;DHT22;38766;53.194;5.532;2023-02-15T17:48:21;7.40;99.90
51557;DHT22;38766;53.194;5.532;2023-02-15T17:50:47;7.40;99.90
51557;DHT22;38766;53.194;5.532;2023-02-15T17:53:16;7.30;99.90
51557;DHT22;38766;53.194;5.532;2023-02-15T17:55:43;7.30;99.90
51557;DHT22;38766;53.194;5.532;2023-02-15T17:58:18;7.20;99.90
51557;DHT22;38766;53.194;5.532;2023-02-15T18:00:53;7.20;99.90
51557;DHT22;38766;53.194;5.532;2023-02-15T18:06:26;7.20;99.90
51557;DHT22;38766;53.194;5.532;2023-02-15T18:09:14;7.20;99.90
51557;DHT22;38766;53.194;5.532;2023-02-15T18:12:02;7.10;99.90
51557;DHT22;38766;53.194;5.532;2023-02-15T18:14:31;7.10;99.90
51557;DHT22;38766;53.194;5.532;2023-02-15T18:17:00;7.20;99.90
51557;DHT22;38766;53.194;5.532;2023-02-15T18:19:26;7.00;99.90
51557;DHT22;38766;53.194;5.532;2023-02-15T18:21:52;7.10;99.90
51557;DHT22;38766;53.194;5.532;2023-02-15T18:24:25;7.10;99.90
51557;DHT22;38766;53.194;5.532;2023-02-15T18:26:52;7.10;99.90
51557;DHT22;38766;53.194;5.532;2023-02-15T18:29:20;7.10;99.90
51557;DHT22;38766;53.194;5.532;2023-02-15T18:31:52;7.20;99.90
51557;DHT22;38766;53.194;5.532;2023-02-15T18:34:23;7.20;99.90
51557;DHT22;38766;53.194;5.532;2023-02-15T18:36:50;7.10;99.90
51557;DHT22;38766;53.194;5.532;2023-02-15T18:39:36;7.10;99.90
51557;DHT22;38766;53.194;5.532;2023-02-15T18:42:03;7.10;99.90
51557;DHT22;38766;53.194;5.532;2023-02-15T18:44:29;7.20;99.90
51557;DHT22;38766;53.194;5.532;2023-02-15T18:46:55;7.20;99.90
51557;DHT22;38766;53.194;5.532;2023-02-15T18:49:21;7.20;99.90
51557;DHT22;38766;53.194;5.532;2023-02-15T18:51:46;7.10;99.90
51557;DHT22;38766;53.194;5.532;2023-02-15T18:54:18;7.10;99.90
51557;DHT22;38766;53.194;5.532;2023-02-15T18:56:58;7.20;99.90
51557;DHT22;38766;53.194;5.532;2023-02-15T18:59:26;7.10;99.90
51557;DHT22;38766;53.194;5.532;2023-02-15T19:01:52;7.30;99.90
51557;DHT22;38766;53.194;5.532;2023-02-15T19:04:18;7.10;99.90
51557;DHT22;38766;53.194;5.532;2023-02-15T19:06:47;7.30;99.90
51557;DHT22;38766;53.194;5.532;2023-02-15T19:09:17;7.20;99.90
51557;DHT22;38766;53.194;5.532;2023-02-15T19:11:48;7.20;99.90
51557;DHT22;38766;53.194;5.532;2023-02-15T19:14:34;7.30;99.90
51557;DHT22;38766;53.194;5.532;2023-02-15T19:17:00;7.20;99.90
51557;DHT22;38766;53.194;5.532;2023-02-15T19:19:26;7.30;99.90